POP weather

Gregorio Luperon International Airport
Puerto Plata, Puerto Plata Province, Dominican Republic

Public forecast

Using degrees Celsius for public forecast. Weather courtesy of forecast.io.

Current aviation weather report (METAR) for Gregorio Luperon International Airport

Retrieved 2019/10/18 19:00 UTC (55 minutes ago):

MDPP 181900Z 09015KT 9999 FEW025 33/24 Q1012

Aviation forecast (TAF) for Gregorio Luperon International Airport

Retrieved 2019/10/18 18:27 UTC (1 hour ago):

TAF MDPP 181600Z 1818/1918 09010KT 9999 FEW025